Time;durP1;ratioP1;P1;durP2;ratioP2;P2;SDS_P1;SDS_P2;PMS_P1;PMS_P2;Temp;Humidity;BMP_temperature;BMP_pressure;BME280_temperature;BME280_humidity;BME280_pressure;Samples;Min_cycle;Max_cycle;Signal;HPM_P1;HPM_P2
2022/02/13 00:00:55;;;;;;;0.10;0.10;;;1.40;99.90;;;;;;5071875;28;20028;-70
2022/02/13 00:03:22;;;;;;;0.10;0.10;;;1.40;99.90;;;;;;5088953;28;20044;-68
2022/02/13 00:05:49;;;;;;;0.10;0.10;;;1.30;99.90;;;;;;5073144;28;20037;-68
2022/02/13 00:08:16;;;;;;;4.35;1.85;;;1.30;99.90;;;;;;5072743;28;20487;-68
2022/02/13 00:10:42;;;;;;;0.10;0.10;;;1.30;99.90;;;;;;5073284;28;20033;-69
2022/02/13 00:13:08;;;;;;;1.00;0.98;;;1.30;99.90;;;;;;5073147;28;20039;-69
2022/02/13 00:15:33;;;;;;;0.55;0.55;;;1.20;99.90;;;;;;5073010;28;20029;-68
2022/02/13 00:17:59;;;;;;;0.10;0.10;;;1.30;99.90;;;;;;5073063;28;20021;-68
2022/02/13 00:20:25;;;;;;;0.10;0.10;;;1.30;99.90;;;;;;5088369;28;20071;-68
2022/02/13 00:22:51;;;;;;;0.10;0.10;;;1.40;99.90;;;;;;5088584;28;20111;-69
2022/02/13 00:25:18;;;;;;;0.10;0.10;;;1.40;99.90;;;;;;5072476;28;20499;-68
2022/02/13 00:27:45;;;;;;;0.10;0.10;;;1.50;99.90;;;;;;5072845;28;20056;-68
2022/02/13 00:30:13;;;;;;;0.10;0.10;;;1.50;99.90;;;;;;5072639;28;20060;-70
2022/02/13 00:32:40;;;;;;;0.10;0.10;;;1.50;99.90;;;;;;5072629;28;20469;-68
2022/02/13 00:35:07;;;;;;;0.10;0.10;;;1.50;99.90;;;;;;5071486;28;20044;-69
2022/02/13 00:37:33;;;;;;;0.10;0.10;;;1.60;99.90;;;;;;5072558;28;20107;-69
2022/02/13 00:39:59;;;;;;;2.25;2.10;;;1.50;99.90;;;;;;5070987;28;20151;-67
2022/02/13 00:42:25;;;;;;;0.57;0.57;;;1.50;99.90;;;;;;5072115;28;20032;-67
2022/02/13 00:44:50;;;;;;;0.22;0.22;;;1.40;99.90;;;;;;5072288;28;20137;-67
2022/02/13 00:47:16;;;;;;;0.10;0.10;;;1.50;99.90;;;;;;5071800;28;20440;-69
2022/02/13 00:49:42;;;;;;;0.40;0.40;;;1.30;99.90;;;;;;5071099;28;20530;-69
2022/02/13 00:52:08;;;;;;;0.20;0.20;;;1.20;99.90;;;;;;5072409;28;20358;-68
2022/02/13 00:54:34;;;;;;;1.30;1.23;;;1.20;99.90;;;;;;5071861;28;20100;-68
2022/02/13 00:57:03;;;;;;;0.13;0.13;;;1.20;99.90;;;;;;5070634;28;20119;-69
2022/02/13 00:59:29;;;;;;;0.10;0.10;;;1.10;99.90;;;;;;5071854;28;20481;-68
2022/02/13 01:01:55;;;;;;;0.30;0.30;;;1.10;99.90;;;;;;5072049;28;20043;-68
2022/02/13 01:04:20;;;;;;;0.13;0.13;;;1.10;99.90;;;;;;5071637;28;20119;-68
2022/02/13 01:06:46;;;;;;;6.65;1.65;;;1.00;99.90;;;;;;5072170;28;20477;-68
2022/02/13 01:09:12;;;;;;;0.10;0.10;;;1.20;99.90;;;;;;5071912;28;20041;-68
2022/02/13 01:11:38;;;;;;;0.20;0.20;;;1.20;99.90;;;;;;5070426;28;20041;-68
2022/02/13 01:14:05;;;;;;;0.17;0.17;;;1.10;99.90;;;;;;5071595;28;20470;-68
2022/02/13 01:16:32;;;;;;;0.50;0.50;;;1.10;99.90;;;;;;5070255;28;20060;-68
2022/02/13 01:18:58;;;;;;;0.20;0.20;;;1.10;99.90;;;;;;5071313;28;20029;-68
2022/02/13 01:21:23;;;;;;;0.10;0.10;;;1.00;99.90;;;;;;5071563;28;20127;-68
2022/02/13 01:23:49;;;;;;;0.43;0.43;;;1.10;99.90;;;;;;5071539;28;20119;-68
2022/02/13 01:26:19;;;;;;;0.28;0.28;;;1.10;99.90;;;;;;5070159;28;20025;-68
2022/02/13 01:28:46;;;;;;;1.67;0.82;;;1.10;99.90;;;;;;5070647;28;20033;-69
2022/02/13 01:31:12;;;;;;;0.10;0.10;;;1.10;99.90;;;;;;5071299;28;20040;-68
2022/02/13 01:33:37;;;;;;;1.48;1.40;;;1.00;99.90;;;;;;5071826;28;20032;-68
2022/02/13 01:36:04;;;;;;;0.28;0.28;;;1.10;99.90;;;;;;5071855;28;20531;-68
2022/02/13 01:38:31;;;;;;;1.95;1.85;;;1.10;99.90;;;;;;5071479;28;20064;-68
2022/02/13 01:40:57;;;;;;;0.10;0.10;;;1.20;99.90;;;;;;5071532;28;20032;-68
2022/02/13 01:43:24;;;;;;;1.33;1.23;;;1.10;99.90;;;;;;5070347;28;20051;-68
2022/02/13 01:45:49;;;;;;;0.10;0.10;;;1.30;99.90;;;;;;5071399;28;20593;-68
2022/02/13 01:48:18;;;;;;;0.20;0.20;;;1.30;99.90;;;;;;5070924;28;20052;-68
2022/02/13 01:50:49;;;;;;;0.47;0.47;;;1.30;99.90;;;;;;5071126;28;20032;-68
2022/02/13 01:53:15;;;;;;;0.10;0.10;;;1.30;99.90;;;;;;5086792;28;20508;-68
2022/02/13 01:55:45;;;;;;;0.30;0.30;;;1.30;99.90;;;;;;5087131;28;20041;-68
2022/02/13 01:58:11;;;;;;;0.65;0.65;;;1.30;99.90;;;;;;5069981;28;20529;-69
2022/02/13 02:00:37;;;;;;;0.35;0.35;;;1.30;99.90;;;;;;5069615;28;20233;-68
2022/02/13 02:03:02;;;;;;;0.10;0.10;;;1.30;99.90;;;;;;5071313;28;20059;-68
2022/02/13 02:05:30;;;;;;;1.02;0.95;;;1.30;99.90;;;;;;5071395;28;20473;-68
2022/02/13 02:07:55;;;;;;;0.10;0.10;;;1.30;99.90;;;;;;5086692;28;20032;-68
2022/02/13 02:10:24;;;;;;;0.47;0.47;;;1.20;99.90;;;;;;5070984;28;20116;-68
2022/02/13 02:12:50;;;;;;;0.80;0.80;;;1.10;99.90;;;;;;5071179;28;20495;-68
2022/02/13 02:15:16;;;;;;;0.10;0.10;;;1.10;99.90;;;;;;5070794;28;20313;-68
2022/02/13 02:17:42;;;;;;;1.98;1.85;;;1.20;99.90;;;;;;5071162;28;20062;-68
2022/02/13 02:20:09;;;;;;;0.10;0.10;;;1.20;99.90;;;;;;5053086;28;20028;-68
2022/02/13 02:22:35;;;;;;;0.70;0.63;;;1.10;99.90;;;;;;5070897;28;20082;-69
2022/02/13 02:25:02;;;;;;;0.10;0.10;;;1.10;99.90;;;;;;5070758;28;20024;-68
2022/02/13 02:27:27;;;;;;;0.10;0.10;;;1.20;99.90;;;;;;5071005;28;20085;-68
2022/02/13 02:29:53;;;;;;;0.22;0.22;;;1.10;99.90;;;;;;5053809;28;20633;-69
2022/02/13 02:32:19;;;;;;;0.10;0.10;;;1.20;99.90;;;;;;5074895;28;20037;-68
2022/02/13 02:34:45;;;;;;;5.50;1.48;;;1.10;99.90;;;;;;5090360;28;20377;-68
2022/02/13 02:37:11;;;;;;;1.70;1.60;;;1.10;99.90;;;;;;5075000;28;20074;-69
2022/02/13 02:39:37;;;;;;;0.17;0.17;;;1.00;99.90;;;;;;5073419;28;20069;-68
2022/02/13 02:42:04;;;;;;;0.10;0.10;;;1.00;99.90;;;;;;5074725;28;20063;-68
2022/02/13 02:44:32;;;;;;;0.45;0.45;;;1.00;99.90;;;;;;5074614;28;20048;-69
2022/02/13 02:46:57;;;;;;;0.57;0.57;;;1.00;99.90;;;;;;5073217;28;20573;-68
2022/02/13 02:49:23;;;;;;;0.65;0.65;;;0.90;99.90;;;;;;5073517;28;20040;-69
2022/02/13 02:51:49;;;;;;;0.22;0.22;;;0.90;99.90;;;;;;5073495;28;20031;-69
2022/02/13 02:54:15;;;;;;;1.00;0.40;;;0.90;99.90;;;;;;5074635;28;20469;-68
2022/02/13 02:56:41;;;;;;;1.60;1.50;;;0.80;99.90;;;;;;5074324;28;20106;-68
2022/02/13 02:59:06;;;;;;;0.22;0.22;;;0.90;99.90;;;;;;5074007;28;20047;-69
2022/02/13 03:01:32;;;;;;;0.10;0.10;;;0.80;99.90;;;;;;5073934;28;20075;-69
2022/02/13 03:03:58;;;;;;;0.95;0.95;;;0.90;99.90;;;;;;5074046;28;20068;-69
2022/02/13 03:06:24;;;;;;;0.10;0.10;;;0.90;99.90;;;;;;5089745;28;20043;-68
2022/02/13 03:08:49;;;;;;;0.45;0.45;;;0.90;99.90;;;;;;5074052;28;20033;-68
2022/02/13 03:11:15;;;;;;;0.63;0.63;;;1.00;99.90;;;;;;5072995;28;20505;-68
2022/02/13 03:13:41;;;;;;;0.28;0.28;;;0.90;99.90;;;;;;5074269;28;20044;-69
2022/02/13 03:16:07;;;;;;;0.10;0.10;;;0.90;99.90;;;;;;5073948;28;20067;-68
2022/02/13 03:18:33;;;;;;;0.10;0.10;;;0.90;99.90;;;;;;5089825;28;20033;-69
2022/02/13 03:20:59;;;;;;;0.80;0.80;;;0.90;99.90;;;;;;5073913;28;20082;-68
2022/02/13 03:23:25;;;;;;;0.10;0.10;;;0.90;99.90;;;;;;5073725;28;20032;-69
2022/02/13 03:25:51;;;;;;;0.10;0.10;;;0.90;99.90;;;;;;5089505;28;20067;-68
2022/02/13 03:28:17;;;;;;;0.10;0.10;;;1.00;99.90;;;;;;5073692;28;20024;-68
2022/02/13 03:30:43;;;;;;;0.10;0.10;;;1.10;99.90;;;;;;5073881;28;20044;-69
2022/02/13 03:33:09;;;;;;;0.25;0.25;;;1.20;99.90;;;;;;5072751;28;20021;-68
2022/02/13 03:35:35;;;;;;;0.40;0.40;;;1.20;99.90;;;;;;5073859;28;20043;-68
2022/02/13 03:38:03;;;;;;;1.85;1.02;;;1.20;99.90;;;;;;5073799;28;20139;-68
2022/02/13 03:40:30;;;;;;;0.10;0.10;;;1.20;99.90;;;;;;5073135;28;20031;-69
2022/02/13 03:42:57;;;;;;;0.55;0.55;;;1.20;99.90;;;;;;5073637;28;20032;-68
2022/02/13 03:45:23;;;;;;;0.13;0.13;;;1.10;99.90;;;;;;5073191;28;20025;-68
2022/02/13 03:47:49;;;;;;;0.10;0.10;;;1.10;99.90;;;;;;5071828;28;20135;-68
2022/02/13 03:50:15;;;;;;;0.22;0.22;;;1.10;99.90;;;;;;5073802;28;20493;-69
2022/02/13 03:52:41;;;;;;;0.00;0.00;;;1.10;99.90;;;;;;5071987;28;20032;-68
2022/02/13 03:55:08;;;;;;;0.10;0.10;;;1.10;99.90;;;;;;5073250;28;20055;-68
2022/02/13 03:57:34;;;;;;;0.43;0.43;;;1.10;99.90;;;;;;5073258;28;20033;-68
2022/02/13 04:00:00;;;;;;;0.10;0.10;;;1.10;99.90;;;;;;5071711;28;20063;-68
2022/02/13 04:02:25;;;;;;;0.65;0.65;;;1.10;99.90;;;;;;5073454;28;20129;-69
2022/02/13 04:04:52;;;;;;;0.75;0.75;;;1.10;99.90;;;;;;5071876;28;20025;-68
2022/02/13 04:07:17;;;;;;;0.10;0.10;;;1.10;99.90;;;;;;5071850;28;20428;-69
2022/02/13 04:09:44;;;;;;;0.20;0.20;;;1.10;99.90;;;;;;5073009;28;20040;-68
2022/02/13 04:12:10;;;;;;;0.10;0.10;;;1.10;99.90;;;;;;5071859;28;20066;-69
2022/02/13 04:14:36;;;;;;;1.45;0.35;;;1.10;99.90;;;;;;5073213;28;20028;-68
2022/02/13 04:17:02;;;;;;;0.77;0.77;;;1.20;99.90;;;;;;5088319;28;20525;-68
2022/02/13 04:19:28;;;;;;;0.55;0.55;;;1.20;99.90;;;;;;5071644;28;20461;-69
2022/02/13 04:21:54;;;;;;;0.17;0.17;;;1.10;99.90;;;;;;5088769;28;20457;-68
2022/02/13 04:24:20;;;;;;;0.10;0.10;;;1.10;99.90;;;;;;5088239;28;20024;-68
2022/02/13 04:26:46;;;;;;;0.38;0.38;;;1.00;99.90;;;;;;5073033;28;20035;-68
2022/02/13 04:29:12;;;;;;;0.10;0.10;;;1.00;99.90;;;;;;5072512;28;20090;-68
2022/02/13 04:31:39;;;;;;;3.05;1.90;;;1.00;99.90;;;;;;5072279;28;20447;-66
2022/02/13 04:34:07;;;;;;;0.10;0.10;;;1.10;99.90;;;;;;5072626;28;20047;-67
2022/02/13 04:36:34;;;;;;;1.88;1.58;;;1.10;99.90;;;;;;5072204;28;20480;-67
2022/02/13 04:39:00;;;;;;;0.30;0.30;;;1.10;99.90;;;;;;5072592;28;20094;-67
2022/02/13 04:41:26;;;;;;;0.10;0.10;;;1.10;99.90;;;;;;5087941;28;20074;-67
2022/02/13 04:43:52;;;;;;;0.70;0.70;;;1.10;99.90;;;;;;5072718;28;20036;-69
2022/02/13 04:46:18;;;;;;;2.60;2.40;;;1.10;99.90;;;;;;5072339;28;20024;-67
2022/02/13 04:48:44;;;;;;;0.40;0.40;;;1.10;99.90;;;;;;5071982;28;20428;-67
2022/02/13 04:51:09;;;;;;;0.28;0.28;;;1.10;99.90;;;;;;5072244;28;20029;-67
2022/02/13 04:53:35;;;;;;;0.17;0.17;;;1.10;99.90;;;;;;5071519;28;20028;-67
2022/02/13 04:56:04;;;;;;;4.38;2.05;;;1.10;99.90;;;;;;5072173;28;20033;-67
2022/02/13 04:58:33;;;;;;;0.10;0.10;;;1.10;99.90;;;;;;5071998;28;20450;-67
2022/02/13 05:00:59;;;;;;;0.10;0.10;;;1.10;99.90;;;;;;5071727;28;20025;-67
2022/02/13 05:03:25;;;;;;;0.93;0.90;;;1.10;99.90;;;;;;5070694;28;20047;-67
2022/02/13 05:05:51;;;;;;;0.10;0.10;;;1.10;99.90;;;;;;5070755;28;20024;-67
2022/02/13 05:08:18;;;;;;;0.10;0.10;;;1.00;99.90;;;;;;5070799;28;20119;-67
2022/02/13 05:10:44;;;;;;;0.10;0.10;;;1.00;99.90;;;;;;5072152;28;20025;-68
2022/02/13 05:13:10;;;;;;;0.17;0.17;;;1.10;99.90;;;;;;5070595;28;20051;-68
2022/02/13 05:15:37;;;;;;;0.30;0.30;;;1.10;99.90;;;;;;5071576;28;20059;-68
2022/02/13 05:18:02;;;;;;;0.35;0.35;;;1.10;99.90;;;;;;5070759;28;20020;-68
2022/02/13 05:20:31;;;;;;;0.20;0.20;;;1.10;99.90;;;;;;5071684;28;20029;-68
2022/02/13 05:22:57;;;;;;;0.10;0.10;;;1.20;99.90;;;;;;5071880;28;20511;-68
2022/02/13 05:25:24;;;;;;;0.10;0.10;;;1.20;99.90;;;;;;5072218;28;20047;-68
2022/02/13 05:27:51;;;;;;;0.10;0.10;;;1.20;99.90;;;;;;5071597;28;20385;-68
2022/02/13 05:30:17;;;;;;;0.43;0.43;;;1.20;99.90;;;;;;5070478;28;20051;-69
2022/02/13 05:32:43;;;;;;;0.52;0.52;;;1.10;99.90;;;;;;5070268;28;20024;-68
2022/02/13 05:35:09;;;;;;;0.10;0.10;;;1.20;99.90;;;;;;5071665;28;20028;-68
2022/02/13 05:37:36;;;;;;;0.95;0.95;;;1.20;99.90;;;;;;5071315;28;20456;-68
2022/02/13 05:40:02;;;;;;;0.50;0.50;;;1.20;99.90;;;;;;5070456;28;20055;-68
2022/02/13 05:42:28;;;;;;;2.17;1.17;;;1.20;99.90;;;;;;5069921;28;20512;-68
2022/02/13 05:44:54;;;;;;;0.32;0.32;;;1.20;99.90;;;;;;5071468;28;20032;-68
2022/02/13 05:47:21;;;;;;;1.48;1.38;;;1.10;99.90;;;;;;5071352;28;20051;-68
2022/02/13 05:49:47;;;;;;;0.45;0.45;;;1.20;99.90;;;;;;5071623;28;20041;-68
2022/02/13 05:52:13;;;;;;;0.13;0.13;;;1.10;99.90;;;;;;5087176;28;20032;-68
2022/02/13 05:54:39;;;;;;;0.10;0.10;;;1.10;99.90;;;;;;5086913;28;20025;-68
2022/02/13 05:57:05;;;;;;;1.27;1.25;;;1.10;99.90;;;;;;5086945;28;20123;-68
2022/02/13 05:59:31;;;;;;;0.10;0.10;;;1.00;99.90;;;;;;5071344;28;20056;-68
2022/02/13 06:01:57;;;;;;;0.43;0.43;;;1.00;99.90;;;;;;5086586;28;20527;-68
2022/02/13 06:04:25;;;;;;;0.45;0.45;;;1.00;99.90;;;;;;5073029;28;20477;-68
2022/02/13 06:06:52;;;;;;;1.35;1.35;;;0.90;99.90;;;;;;5075408;28;20487;-68
2022/02/13 06:09:20;;;;;;;0.75;0.75;;;1.00;99.90;;;;;;5075265;28;20067;-68
2022/02/13 06:11:46;;;;;;;1.27;1.27;;;0.90;99.90;;;;;;5091174;28;20328;-67
2022/02/13 06:14:12;;;;;;;0.32;0.32;;;1.00;99.90;;;;;;5090925;28;20409;-68
2022/02/13 06:16:39;;;;;;;0.20;0.20;;;0.90;99.90;;;;;;5075364;28;20477;-68
2022/02/13 06:19:06;;;;;;;1.75;1.55;;;1.00;99.90;;;;;;5075419;28;20040;-69
2022/02/13 06:21:32;;;;;;;0.10;0.10;;;0.90;99.90;;;;;;5075397;28;20047;-68
2022/02/13 06:23:59;;;;;;;0.40;0.38;;;1.00;99.90;;;;;;5075174;28;20028;-68
2022/02/13 06:26:25;;;;;;;0.10;0.10;;;1.00;99.90;;;;;;5073762;28;20062;-68
2022/02/13 06:28:52;;;;;;;0.35;0.35;;;1.00;99.90;;;;;;5074940;28;20117;-69
2022/02/13 06:31:18;;;;;;;0.10;0.10;;;1.10;99.90;;;;;;5090477;28;20035;-66
2022/02/13 06:33:44;;;;;;;0.85;0.85;;;1.10;99.90;;;;;;5074712;28;20032;-67
2022/02/13 06:36:10;;;;;;;0.20;0.20;;;1.10;99.90;;;;;;5075175;28;20111;-66
2022/02/13 06:38:36;;;;;;;0.32;0.32;;;1.10;99.90;;;;;;5074898;28;20028;-66
2022/02/13 06:41:02;;;;;;;0.10;0.10;;;1.10;99.90;;;;;;5075003;28;20031;-64
2022/02/13 06:43:28;;;;;;;0.10;0.10;;;1.20;99.90;;;;;;5074110;28;20060;-64
2022/02/13 06:45:53;;;;;;;0.10;0.10;;;1.20;99.90;;;;;;5074838;28;20040;-64
2022/02/13 06:48:19;;;;;;;0.10;0.10;;;1.20;99.90;;;;;;5073061;28;20558;-64
2022/02/13 06:50:45;;;;;;;0.47;0.47;;;1.30;99.90;;;;;;5073933;28;20377;-65
2022/02/13 06:53:11;;;;;;;0.20;0.20;;;1.30;99.90;;;;;;5073902;28;20086;-65
2022/02/13 06:55:37;;;;;;;0.17;0.17;;;1.30;99.90;;;;;;5074302;28;20036;-65
2022/02/13 06:58:03;;;;;;;0.43;0.43;;;1.40;99.90;;;;;;5074097;28;20090;-66
2022/02/13 07:00:29;;;;;;;0.10;0.10;;;1.30;99.90;;;;;;5068496;28;20081;-64
2022/02/13 07:02:54;;;;;;;0.10;0.10;;;1.30;99.90;;;;;;5053323;28;20029;-65
2022/02/13 07:05:23;;;;;;;1.25;1.25;;;1.40;99.90;;;;;;5054671;28;20058;-65
2022/02/13 07:07:49;;;;;;;0.00;0.00;;;1.50;99.90;;;;;;5053925;28;20032;-64
2022/02/13 07:10:15;;;;;;;0.10;0.10;;;1.40;99.90;;;;;;5054440;28;20028;-65
2022/02/13 07:12:41;;;;;;;0.10;0.10;;;1.50;99.90;;;;;;5056005;28;20037;-75
2022/02/13 07:15:08;;;;;;;0.13;0.13;;;1.60;99.90;;;;;;5073736;28;20024;-67
2022/02/13 07:17:37;;;;;;;0.15;0.15;;;1.60;99.90;;;;;;5073528;28;20032;-66
2022/02/13 07:20:05;;;;;;;0.10;0.10;;;1.80;99.90;;;;;;5072937;28;20059;-70
2022/02/13 07:22:31;;;;;;;0.10;0.10;;;1.90;99.90;;;;;;5074093;28;20118;-67
2022/02/13 07:24:57;;;;;;;0.30;0.30;;;2.00;99.90;;;;;;5073015;28;20052;-67
2022/02/13 07:27:22;;;;;;;0.10;0.10;;;2.10;99.90;;;;;;5074203;28;20033;-67
2022/02/13 07:29:48;;;;;;;0.20;0.20;;;2.10;99.90;;;;;;5074000;28;20540;-67
2022/02/13 07:32:14;;;;;;;0.45;0.45;;;2.20;99.90;;;;;;5072585;28;20032;-68
2022/02/13 07:34:40;;;;;;;1.00;1.00;;;2.30;99.90;;;;;;5072644;28;20025;-65
2022/02/13 07:37:06;;;;;;;1.17;0.65;;;2.40;99.90;;;;;;5073711;28;20102;-73
2022/02/13 07:39:33;;;;;;;0.68;0.68;;;2.50;99.90;;;;;;5073907;28;20064;-72
2022/02/13 07:42:00;;;;;;;0.10;0.10;;;2.70;99.90;;;;;;5072626;28;20047;-66
2022/02/13 07:44:26;;;;;;;0.32;0.32;;;2.90;99.90;;;;;;5056102;28;20037;-69
2022/02/13 07:46:53;;;;;;;0.15;0.15;;;3.00;99.90;;;;;;5073504;28;20130;-69
2022/02/13 07:49:19;;;;;;;0.90;0.90;;;3.10;99.90;;;;;;5055487;28;20103;-66
2022/02/13 07:51:46;;;;;;;0.95;0.95;;;3.20;99.90;;;;;;5073436;28;20130;-68
2022/02/13 07:54:12;;;;;;;0.10;0.10;;;3.30;99.90;;;;;;5073672;28;20094;-64
2022/02/13 07:56:38;;;;;;;0.10;0.10;;;3.40;99.90;;;;;;5072256;28;20054;-65
2022/02/13 07:59:04;;;;;;;1.63;0.88;;;3.40;99.90;;;;;;5073596;28;20036;-65
2022/02/13 08:01:30;;;;;;;0.30;0.30;;;3.40;99.90;;;;;;5073519;28;20032;-65
2022/02/13 08:03:56;;;;;;;0.20;0.20;;;3.40;99.90;;;;;;5071798;28;20136;-64
2022/02/13 08:06:22;;;;;;;0.30;0.30;;;3.30;99.90;;;;;;5072059;28;20039;-63
2022/02/13 08:08:52;;;;;;;0.10;0.10;;;3.20;99.90;;;;;;5071652;28;20096;-64
2022/02/13 08:11:18;;;;;;;0.20;0.20;;;3.10;99.90;;;;;;5073408;28;20067;-66
2022/02/13 08:13:45;;;;;;;2.95;2.15;;;3.20;99.90;;;;;;5071761;28;20059;-67
2022/02/13 08:16:14;;;;;;;1.95;1.02;;;3.20;99.90;;;;;;5071792;28;20112;-67
2022/02/13 08:18:39;;;;;;;0.28;0.28;;;3.30;99.90;;;;;;5072908;28;20029;-70
2022/02/13 08:21:07;;;;;;;0.10;0.10;;;3.40;99.90;;;;;;5072651;28;20028;-73
2022/02/13 08:23:36;;;;;;;0.38;0.38;;;3.40;99.90;;;;;;5072176;28;20029;-74
2022/02/13 08:26:03;;;;;;;0.52;0.52;;;3.50;99.90;;;;;;5069570;28;20112;-74
2022/02/13 08:28:31;;;;;;;0.70;0.70;;;3.50;99.90;;;;;;5067626;28;20033;-74
2022/02/13 08:30:57;;;;;;;0.35;0.35;;;3.60;99.90;;;;;;5051971;28;20679;-75
2022/02/13 08:33:24;;;;;;;0.63;0.63;;;3.70;99.90;;;;;;5052793;28;20505;-74
2022/02/13 08:35:49;;;;;;;0.15;0.15;;;3.80;99.90;;;;;;5053024;28;20115;-77
2022/02/13 08:38:15;;;;;;;0.20;0.20;;;3.90;99.90;;;;;;5069159;28;20067;-66
2022/02/13 08:40:41;;;;;;;0.20;0.20;;;4.00;99.90;;;;;;5072439;28;20041;-66
2022/02/13 08:43:08;;;;;;;0.00;0.00;;;4.10;99.90;;;;;;5071881;28;20111;-66
2022/02/13 08:45:38;;;;;;;0.38;0.38;;;4.20;99.90;;;;;;5072400;28;20093;-66
2022/02/13 08:48:04;;;;;;;0.20;0.20;;;4.30;99.90;;;;;;5067138;28;20073;-66
2022/02/13 08:50:31;;;;;;;0.30;0.30;;;4.40;99.90;;;;;;5052392;28;20122;-66
2022/02/13 08:52:57;;;;;;;0.70;0.70;;;4.60;99.90;;;;;;5062633;28;20036;-66
2022/02/13 08:55:23;;;;;;;0.38;0.38;;;4.70;99.90;;;;;;5072738;28;20508;-65
2022/02/13 08:57:49;;;;;;;2.40;1.02;;;4.80;99.90;;;;;;5087790;28;20032;-66
2022/02/13 09:00:18;;;;;;;0.20;0.20;;;5.00;99.90;;;;;;5072439;28;20052;-66
2022/02/13 09:02:44;;;;;;;1.52;1.42;;;5.10;99.90;;;;;;5087953;28;20040;-66
2022/02/13 09:05:10;;;;;;;0.65;0.63;;;5.10;99.90;;;;;;5072748;28;20039;-66
2022/02/13 09:07:39;;;;;;;0.57;0.57;;;5.20;99.90;;;;;;5072179;28;20111;-66
2022/02/13 09:10:12;;;;;;;0.08;0.08;;;5.20;99.90;;;;;;5084209;28;20417;-66
2022/02/13 09:12:38;;;;;;;0.30;0.30;;;5.30;99.90;;;;;;5050630;28;20029;-66
2022/02/13 09:15:06;;;;;;;1.30;1.25;;;5.30;99.90;;;;;;5051030;28;20104;-66
2022/02/13 09:17:32;;;;;;;0.00;0.00;;;5.40;99.90;;;;;;5051148;28;20052;-67
2022/02/13 09:19:58;;;;;;;0.45;0.45;;;5.50;99.90;;;;;;5051840;28;20393;-64
2022/02/13 09:22:24;;;;;;;0.20;0.20;;;5.60;99.90;;;;;;5057019;28;20497;-71
2022/02/13 09:24:50;;;;;;;0.20;0.20;;;5.60;99.90;;;;;;5071818;28;20032;-66
2022/02/13 09:27:16;;;;;;;2.83;1.85;;;5.60;99.90;;;;;;5071712;28;20374;-66
2022/02/13 09:29:42;;;;;;;0.88;0.85;;;5.70;99.90;;;;;;5070624;28;20028;-67
2022/02/13 09:32:08;;;;;;;0.75;0.75;;;5.80;99.90;;;;;;5087051;28;20062;-68
2022/02/13 09:34:34;;;;;;;0.00;0.00;;;5.80;99.90;;;;;;5071972;28;20033;-66
2022/02/13 09:37:01;;;;;;;0.57;0.57;;;5.90;99.90;;;;;;5071662;28;20115;-69
2022/02/13 09:39:28;;;;;;;0.00;0.00;;;5.90;99.90;;;;;;5086992;28;20081;-68
2022/02/13 09:41:54;;;;;;;0.10;0.10;;;5.90;99.90;;;;;;5086818;28;20033;-68
2022/02/13 09:44:20;;;;;;;0.10;0.10;;;6.00;99.90;;;;;;5071282;28;20093;-67
2022/02/13 09:46:46;;;;;;;0.10;0.10;;;6.00;99.90;;;;;;5069899;28;20029;-69
2022/02/13 09:49:22;;;;;;;0.90;0.90;;;6.20;99.90;;;;;;5087189;28;20487;-69
2022/02/13 09:51:49;;;;;;;0.20;0.20;;;6.30;99.90;;;;;;5086579;28;20036;-68
2022/02/13 09:54:15;;;;;;;0.00;0.00;;;6.40;99.90;;;;;;5071715;28;20028;-67
2022/02/13 09:56:43;;;;;;;0.10;0.10;;;6.40;99.90;;;;;;5070211;28;20090;-71
2022/02/13 09:59:10;;;;;;;0.30;0.25;;;6.40;99.90;;;;;;5071474;28;20473;-68
2022/02/13 10:01:42;;;;;;;0.32;0.32;;;6.60;99.90;;;;;;5071256;28;20028;-69
2022/02/13 10:04:12;;;;;;;0.73;0.73;;;6.70;99.90;;;;;;5071612;28;20036;-69
2022/02/13 10:06:39;;;;;;;0.10;0.10;;;6.80;99.90;;;;;;5071083;28;20461;-69
2022/02/13 10:09:08;;;;;;;0.10;0.10;;;6.80;99.90;;;;;;5071394;28;20111;-69
2022/02/13 10:11:37;;;;;;;0.60;0.60;;;6.80;99.90;;;;;;5071132;28;20538;-69
2022/02/13 10:14:09;;;;;;;0.10;0.10;;;6.90;99.90;;;;;;5071415;28;20043;-69
2022/02/13 10:16:45;;;;;;;0.10;0.10;;;7.00;99.90;;;;;;5071164;28;20036;-69
2022/02/13 10:19:19;;;;;;;0.17;0.17;;;7.30;99.90;;;;;;5071149;28;20025;-69
2022/02/13 10:21:58;;;;;;;0.00;0.00;;;7.60;99.90;;;;;;5086466;28;20512;-70
2022/02/13 10:24:23;;;;;;;0.00;0.00;;;8.00;99.90;;;;;;5086428;28;20033;-70
2022/02/13 10:27:04;;;;;;;0.10;0.10;;;8.20;99.90;;;;;;5071101;28;20039;-69
2022/02/13 10:29:38;;;;;;;0.20;0.20;;;8.20;99.90;;;;;;5071016;28;20089;-69
2022/02/13 10:32:21;;;;;;;0.10;0.10;;;8.20;99.90;;;;;;5086352;28;20275;-69
2022/02/13 10:35:12;;;;;;;0.03;0.03;;;8.30;99.90;;;;;;5071080;28;20050;-70
2022/02/13 10:37:58;;;;;;;0.50;0.50;;;8.50;99.90;;;;;;5070868;28;20453;-70
2022/02/13 10:40:31;;;;;;;1.75;1.65;;;8.70;99.90;;;;;;5069546;28;20035;-70
2022/02/13 10:43:09;;;;;;;0.90;0.90;;;8.50;99.90;;;;;;5069415;28;20037;-70
2022/02/13 10:45:37;;;;;;;0.00;0.00;;;8.60;99.90;;;;;;5070963;28;20106;-69
2022/02/13 10:48:10;;;;;;;1.23;1.20;;;8.90;99.90;;;;;;5068170;28;20041;-69
2022/02/13 10:50:40;;;;;;;1.15;1.10;;;9.00;99.90;;;;;;5069642;28;20043;-70
2022/02/13 10:53:07;;;;;;;0.10;0.10;;;9.00;99.90;;;;;;5073914;28;20020;-70
2022/02/13 10:55:36;;;;;;;5.35;2.28;;;9.30;99.90;;;;;;5069629;28;20118;-68
2022/02/13 10:58:03;;;;;;;0.35;0.35;;;9.70;99.90;;;;;;5047994;28;20078;-70
2022/02/13 11:00:31;;;;;;;0.20;0.20;;;9.90;99.90;;;;;;5073987;28;20107;-70
2022/02/13 11:03:04;;;;;;;0.47;0.47;;;10.20;99.90;;;;;;5072818;28;20504;-70
2022/02/13 11:05:32;;;;;;;0.38;0.38;;;10.30;99.90;;;;;;5070914;28;20086;-69
2022/02/13 11:08:12;;;;;;;0.25;0.25;;;10.50;99.90;;;;;;5052647;28;20064;-70
2022/02/13 11:10:44;;;;;;;1.98;0.80;;;10.60;99.90;;;;;;5057105;28;20943;-70
2022/02/13 11:13:17;;;;;;;0.90;0.90;;;11.10;99.90;;;;;;5073264;28;20040;-69
2022/02/13 11:15:44;;;;;;;0.00;0.00;;;10.30;99.90;;;;;;5072814;28;20411;-70
2022/02/13 11:18:19;;;;;;;2.30;1.05;;;10.90;99.90;;;;;;5074002;28;20532;-69
2022/02/13 11:20:45;;;;;;;0.15;0.15;;;11.40;98.80;;;;;;5069183;28;20091;-66
2022/02/13 11:23:26;;;;;;;0.52;0.47;;;10.70;99.90;;;;;;5052503;28;20060;-66
2022/02/13 11:26:06;;;;;;;0.45;0.45;;;10.70;99.30;;;;;;5053873;28;20046;-67
2022/02/13 11:28:46;;;;;;;0.60;0.60;;;11.20;98.70;;;;;;5065897;28;20072;-67
2022/02/13 11:31:55;;;;;;;2.55;0.65;;;11.70;97.70;;;;;;5073806;28;20040;-67
2022/02/13 11:34:27;;;;;;;0.30;0.30;;;11.90;98.20;;;;;;5072539;28;20033;-67
2022/02/13 11:37:09;;;;;;;0.80;0.80;;;12.40;97.20;;;;;;5089199;28;20045;-66
2022/02/13 11:39:45;;;;;;;0.32;0.32;;;12.20;96.20;;;;;;5089153;28;20028;-67
2022/02/13 11:42:18;;;;;;;7.35;1.35;;;12.10;96.80;;;;;;5089197;28;20020;-66
2022/02/13 11:44:54;;;;;;;1.17;1.08;;;11.20;97.50;;;;;;5073903;28;20032;-66
2022/02/13 11:47:40;;;;;;;0.63;0.63;;;11.10;98.70;;;;;;5073415;28;20501;-66
2022/02/13 11:50:14;;;;;;;1.85;1.75;;;11.30;98.20;;;;;;5073083;28;20040;-66
2022/02/13 11:53:07;;;;;;;1.08;0.98;;;11.90;97.40;;;;;;5073673;28;20111;-67
2022/02/13 11:55:35;;;;;;;0.00;0.00;;;12.50;95.60;;;;;;5073048;28;20066;-66
2022/02/13 11:58:13;;;;;;;1.35;1.25;;;12.30;96.00;;;;;;5073521;28;20033;-66
2022/02/13 12:00:57;;;;;;;0.70;0.70;;;11.70;97.10;;;;;;5073611;28;20029;-66
2022/02/13 12:03:29;;;;;;;0.35;0.35;;;12.40;96.50;;;;;;5073034;28;20028;-67
2022/02/13 12:06:01;;;;;;;0.73;0.73;;;12.30;96.60;;;;;;5087984;28;20029;-66
2022/02/13 12:08:27;;;;;;;0.35;0.35;;;11.50;97.50;;;;;;5073377;28;20086;-65
2022/02/13 12:11:08;;;;;;;3.95;2.13;;;11.80;97.50;;;;;;5072581;28;20036;-66
2022/02/13 12:13:36;;;;;;;0.00;0.00;;;11.10;97.70;;;;;;5073111;28;20062;-67
2022/02/13 12:16:04;;;;;;;0.13;0.13;;;11.80;98.40;;;;;;5071350;28;20071;-67
2022/02/13 12:18:30;;;;;;;1.08;0.70;;;12.40;95.70;;;;;;5074996;28;20029;-66
2022/02/13 12:21:06;;;;;;;0.43;0.43;;;13.10;95.30;;;;;;5080652;28;20044;-66
2022/02/13 12:23:32;;;;;;;0.45;0.45;;;12.60;95.50;;;;;;5087339;28;20056;-67
2022/02/13 12:25:59;;;;;;;0.20;0.20;;;13.30;95.60;;;;;;5083857;28;20040;-66
2022/02/13 12:28:35;;;;;;;0.10;0.10;;;14.30;94.60;;;;;;5078598;28;20028;-66
2022/02/13 12:31:03;;;;;;;1.02;0.68;;;13.60;93.80;;;;;;5069941;28;20480;-66
2022/02/13 12:33:31;;;;;;;0.08;0.08;;;12.90;94.70;;;;;;5071374;28;20481;-66
2022/02/13 12:35:58;;;;;;;0.43;0.43;;;12.90;95.80;;;;;;5072638;28;20528;-67
2022/02/13 12:38:27;;;;;;;0.30;0.30;;;12.50;95.60;;;;;;5071476;28;20036;-66
2022/02/13 12:40:57;;;;;;;0.32;0.32;;;13.00;95.20;;;;;;5072330;28;20040;-66
2022/02/13 12:43:24;;;;;;;1.17;0.85;;;12.90;94.50;;;;;;5072412;28;20470;-66
2022/02/13 12:45:52;;;;;;;0.73;0.63;;;13.00;95.50;;;;;;5072134;28;20036;-67
2022/02/13 12:48:21;;;;;;;0.40;0.40;;;13.60;94.00;;;;;;5072119;28;20099;-66
2022/02/13 12:50:52;;;;;;;1.25;1.15;;;14.40;92.50;;;;;;5072081;28;20109;-67
2022/02/13 12:53:26;;;;;;;0.28;0.28;;;14.90;91.90;;;;;;5071852;28;20032;-66
2022/02/13 12:55:58;;;;;;;0.10;0.10;;;13.30;94.10;;;;;;5072476;28;20035;-66
2022/02/13 12:58:24;;;;;;;0.68;0.63;;;13.70;93.50;;;;;;5071237;28;20032;-66